Time;durP1;ratioP1;P1;durP2;ratioP2;P2;SDS_P1;SDS_P2;PMS_P1;PMS_P2;Temp;Humidity;BMP_temperature;BMP_pressure;BME280_temperature;BME280_humidity;BME280_pressure;Samples;Min_cycle;Max_cycle;Signal;HPM_P1;HPM_P2
2023/08/16 00:00:43;;;;;;;5.82;3.30;;;22.00;99.90;;;;;;5002691;28;20108;-73
2023/08/16 00:03:08;;;;;;;6.63;3.58;;;22.00;99.90;;;;;;4989869;28;20045;-73
2023/08/16 00:05:42;;;;;;;7.70;4.05;;;22.00;99.90;;;;;;5002635;28;20074;-73
2023/08/16 00:08:13;;;;;;;7.90;4.22;;;22.00;99.90;;;;;;5004648;28;20026;-73
2023/08/16 00:10:42;;;;;;;6.28;3.95;;;21.90;99.90;;;;;;5005338;28;20045;-73
2023/08/16 00:13:11;;;;;;;5.20;4.15;;;21.90;99.90;;;;;;5003440;28;20026;-73
2023/08/16 00:15:39;;;;;;;7.13;3.65;;;21.90;99.90;;;;;;4986816;28;20061;-73
2023/08/16 00:18:08;;;;;;;7.47;4.25;;;21.90;99.90;;;;;;5000753;28;20385;-72
2023/08/16 00:20:43;;;;;;;7.97;3.95;;;21.80;99.90;;;;;;4989185;28;20079;-74
2023/08/16 00:23:17;;;;;;;7.45;3.60;;;21.80;99.90;;;;;;5004588;28;20045;-74
2023/08/16 00:25:43;;;;;;;6.88;3.53;;;21.80;99.90;;;;;;4983336;28;20499;-74
2023/08/16 00:28:08;;;;;;;7.38;3.47;;;21.80;99.90;;;;;;4991142;28;20030;-74
2023/08/16 00:30:34;;;;;;;4.35;3.30;;;21.80;99.90;;;;;;4984440;28;20029;-73
2023/08/16 00:33:00;;;;;;;4.95;2.70;;;21.80;99.90;;;;;;5005865;28;20044;-75
2023/08/16 00:35:28;;;;;;;7.20;3.88;;;21.80;99.90;;;;;;4988733;28;20029;-73
2023/08/16 00:38:00;;;;;;;5.88;3.15;;;21.70;99.90;;;;;;4989950;28;20037;-74
2023/08/16 00:40:32;;;;;;;5.63;3.42;;;21.70;99.90;;;;;;5002979;28;20025;-74
2023/08/16 00:42:57;;;;;;;7.22;3.60;;;21.70;99.90;;;;;;4987978;28;20073;-72
2023/08/16 00:45:23;;;;;;;5.22;3.45;;;21.60;99.90;;;;;;4987267;28;20118;-72
2023/08/16 00:47:49;;;;;;;6.00;3.08;;;21.60;99.90;;;;;;5004344;28;20041;-72
2023/08/16 00:50:18;;;;;;;5.75;3.40;;;21.60;99.90;;;;;;4985986;28;20061;-73
2023/08/16 00:52:44;;;;;;;4.53;3.13;;;21.60;99.90;;;;;;4990103;28;20511;-72
2023/08/16 00:55:10;;;;;;;6.15;3.40;;;21.60;99.90;;;;;;5007842;28;20029;-72
2023/08/16 00:57:36;;;;;;;4.97;3.60;;;21.50;99.90;;;;;;5000758;28;20037;-72
2023/08/16 01:00:05;;;;;;;5.78;3.17;;;21.50;99.90;;;;;;4999620;28;20532;-72
2023/08/16 01:02:39;;;;;;;6.93;3.95;;;21.50;99.90;;;;;;4998840;28;20109;-72
2023/08/16 01:05:06;;;;;;;4.57;3.00;;;21.40;99.90;;;;;;5000815;28;20121;-72
2023/08/16 01:07:45;;;;;;;5.22;2.80;;;21.40;99.90;;;;;;4984813;28;20102;-72
2023/08/16 01:10:14;;;;;;;10.15;3.50;;;21.40;99.90;;;;;;5001116;28;20556;-73
2023/08/16 01:13:06;;;;;;;4.40;3.38;;;21.40;99.90;;;;;;4984547;28;20030;-73
2023/08/16 01:15:36;;;;;;;7.18;3.47;;;21.40;99.90;;;;;;5005334;28;20038;-72
2023/08/16 01:18:06;;;;;;;7.82;3.45;;;21.40;99.90;;;;;;5005575;28;20527;-73
2023/08/16 01:20:35;;;;;;;6.07;3.20;;;21.30;99.90;;;;;;5005896;28;20060;-74
2023/08/16 01:23:38;;;;;;;5.97;2.85;;;21.30;99.90;;;;;;4988922;28;20485;-72
2023/08/16 01:26:37;;;;;;;7.28;3.63;;;21.30;99.90;;;;;;4973483;28;20447;-77
2023/08/16 01:29:04;;;;;;;10.30;3.80;;;21.30;99.90;;;;;;5008183;28;20381;-76
2023/08/16 01:31:32;;;;;;;7.32;3.35;;;21.20;99.90;;;;;;5009838;28;20303;-76
2023/08/16 01:33:59;;;;;;;8.98;2.85;;;21.30;99.90;;;;;;5010324;28;20065;-76
2023/08/16 01:36:33;;;;;;;5.15;3.35;;;21.30;99.90;;;;;;5011562;28;20053;-76
2023/08/16 01:38:59;;;;;;;5.05;3.58;;;21.20;99.90;;;;;;4995535;28;20022;-76
2023/08/16 01:41:43;;;;;;;6.70;3.05;;;21.20;99.90;;;;;;5007719;28;20026;-76
2023/08/16 01:44:11;;;;;;;4.80;3.72;;;21.20;99.90;;;;;;5006287;28;20104;-76
2023/08/16 01:46:40;;;;;;;4.75;3.58;;;21.20;99.90;;;;;;5009766;28;20092;-78
2023/08/16 01:49:13;;;;;;;4.88;3.53;;;21.20;99.90;;;;;;4994957;28;20030;-78
2023/08/16 01:51:41;;;;;;;4.75;3.30;;;21.10;99.90;;;;;;4992365;28;20022;-79
2023/08/16 01:54:11;;;;;;;3.90;3.22;;;21.10;99.90;;;;;;5007703;28;20032;-78
2023/08/16 01:56:36;;;;;;;6.68;3.92;;;21.10;99.90;;;;;;5012554;28;20018;-78
2023/08/16 01:59:02;;;;;;;6.57;3.63;;;21.10;99.90;;;;;;5013660;28;20087;-78
2023/08/16 02:01:27;;;;;;;5.00;3.78;;;21.00;99.90;;;;;;5014535;28;20026;-78
2023/08/16 02:03:53;;;;;;;4.30;3.58;;;20.90;99.90;;;;;;5010654;28;20034;-78
2023/08/16 02:06:19;;;;;;;4.85;3.58;;;20.80;99.90;;;;;;5012587;28;20354;-78
2023/08/16 02:08:45;;;;;;;5.30;3.67;;;20.80;99.90;;;;;;5013012;28;20030;-78
2023/08/16 02:11:10;;;;;;;8.95;3.40;;;20.70;99.90;;;;;;5010464;28;20563;-78
2023/08/16 02:13:36;;;;;;;7.53;3.83;;;20.60;99.90;;;;;;5014905;28;20100;-78
2023/08/16 02:16:10;;;;;;;6.95;3.53;;;20.60;99.90;;;;;;4996545;28;20096;-78
2023/08/16 02:18:36;;;;;;;4.03;2.95;;;20.50;99.90;;;;;;5011351;28;20026;-77
2023/08/16 02:21:02;;;;;;;5.57;3.70;;;20.50;99.90;;;;;;5009693;28;20868;-78
2023/08/16 02:23:36;;;;;;;8.77;3.55;;;20.40;99.90;;;;;;5015843;28;20034;-78
2023/08/16 02:26:02;;;;;;;8.40;3.78;;;20.40;99.90;;;;;;5013152;28;20500;-77
2023/08/16 02:28:30;;;;;;;4.07;3.05;;;20.40;99.90;;;;;;5014339;28;20083;-77
2023/08/16 02:31:11;;;;;;;6.18;3.35;;;20.30;99.90;;;;;;5017935;28;20065;-77
2023/08/16 02:33:40;;;;;;;6.63;3.95;;;20.30;99.90;;;;;;5018127;28;20030;-78
2023/08/16 02:36:09;;;;;;;5.13;3.53;;;20.30;99.90;;;;;;4999113;28;20124;-78
2023/08/16 02:38:34;;;;;;;6.65;3.72;;;20.30;99.90;;;;;;5016749;28;20096;-77
2023/08/16 02:41:01;;;;;;;9.73;4.50;;;20.30;99.90;;;;;;5016165;28;20033;-76
2023/08/16 02:43:32;;;;;;;7.40;3.53;;;20.30;99.90;;;;;;5012521;28;20459;-76
2023/08/16 02:45:57;;;;;;;8.32;4.28;;;20.30;99.90;;;;;;4987794;28;20522;-76
2023/08/16 02:48:23;;;;;;;4.47;3.90;;;20.30;99.90;;;;;;5015738;28;20048;-77
2023/08/16 02:50:49;;;;;;;4.60;3.63;;;20.30;99.90;;;;;;5015924;28;20022;-78
2023/08/16 02:53:16;;;;;;;6.32;4.47;;;20.30;99.90;;;;;;5015521;28;20030;-77
2023/08/16 02:55:42;;;;;;;10.95;4.55;;;20.30;99.90;;;;;;5007135;28;20526;-78
2023/08/16 02:58:10;;;;;;;8.57;4.13;;;20.30;99.90;;;;;;5015571;28;20022;-77
2023/08/16 03:00:42;;;;;;;7.72;4.28;;;20.30;99.90;;;;;;5008528;28;20532;-77
2023/08/16 03:03:08;;;;;;;5.03;4.05;;;20.20;99.90;;;;;;4997565;28;20476;-77
2023/08/16 03:05:36;;;;;;;6.30;4.25;;;20.20;99.90;;;;;;5011568;28;20139;-76
2023/08/16 03:08:08;;;;;;;5.22;3.88;;;20.20;99.90;;;;;;4992747;28;20021;-77
2023/08/16 03:10:43;;;;;;;11.65;4.40;;;20.10;99.90;;;;;;5002551;28;20107;-76
2023/08/16 03:13:08;;;;;;;10.85;4.35;;;20.10;99.90;;;;;;4987542;28;20058;-77
2023/08/16 03:15:34;;;;;;;7.18;4.35;;;20.00;99.90;;;;;;5017868;28;20095;-76
2023/08/16 03:18:00;;;;;;;7.40;4.80;;;20.00;99.90;;;;;;5013018;28;20088;-76
2023/08/16 03:20:28;;;;;;;7.07;4.40;;;20.00;99.90;;;;;;4991694;28;20037;-76
2023/08/16 03:23:00;;;;;;;5.53;4.03;;;20.00;99.90;;;;;;4992693;28;20504;-76
2023/08/16 03:25:29;;;;;;;7.63;4.18;;;20.00;99.90;;;;;;5017101;28;20032;-77
2023/08/16 03:27:58;;;;;;;6.70;4.00;;;19.90;99.90;;;;;;5014021;28;20153;-76
2023/08/16 03:30:33;;;;;;;5.95;4.10;;;19.90;99.90;;;;;;5018668;28;20030;-77
2023/08/16 03:32:58;;;;;;;7.60;4.30;;;19.90;99.90;;;;;;5014557;28;20109;-77
2023/08/16 03:35:24;;;;;;;10.32;4.72;;;19.90;99.90;;;;;;5013833;28;20527;-76
2023/08/16 03:37:50;;;;;;;7.70;4.53;;;19.90;99.90;;;;;;4992629;28;20041;-77
2023/08/16 03:40:34;;;;;;;9.05;4.13;;;19.90;99.90;;;;;;5014047;28;20076;-76
2023/08/16 03:43:00;;;;;;;8.40;4.72;;;19.90;99.90;;;;;;4993523;28;20065;-77
2023/08/16 03:45:28;;;;;;;7.32;4.78;;;19.80;99.90;;;;;;5003663;28;20022;-77
2023/08/16 03:47:56;;;;;;;8.30;4.55;;;19.80;99.90;;;;;;4983611;28;20022;-77
2023/08/16 03:50:27;;;;;;;7.78;4.70;;;19.80;99.90;;;;;;4997268;28;20026;-77
2023/08/16 03:52:53;;;;;;;8.52;4.75;;;19.80;99.90;;;;;;5015067;28;20048;-77
2023/08/16 03:55:22;;;;;;;8.25;4.75;;;19.80;99.90;;;;;;4992056;28;20025;-77
2023/08/16 03:57:53;;;;;;;7.30;4.90;;;19.80;99.90;;;;;;5012159;28;20129;-77
2023/08/16 04:00:28;;;;;;;6.47;4.60;;;19.70;99.90;;;;;;5011815;28;20041;-78
2023/08/16 04:03:00;;;;;;;7.18;4.97;;;19.70;99.90;;;;;;5017136;28;20489;-78
2023/08/16 04:05:26;;;;;;;6.57;5.15;;;19.70;99.90;;;;;;4995584;28;20024;-77
2023/08/16 04:07:54;;;;;;;7.18;4.15;;;19.70;99.90;;;;;;5013113;28;20025;-78
2023/08/16 04:10:29;;;;;;;10.07;4.90;;;19.70;99.90;;;;;;5016270;28;20026;-78
2023/08/16 04:12:57;;;;;;;8.45;5.05;;;19.70;99.90;;;;;;5015614;28;20448;-78
2023/08/16 04:15:26;;;;;;;9.90;5.13;;;19.70;99.90;;;;;;5010726;28;20556;-77
2023/08/16 04:17:51;;;;;;;7.75;4.72;;;19.70;99.90;;;;;;4992116;28;20026;-76
2023/08/16 04:20:20;;;;;;;7.30;4.38;;;19.50;99.90;;;;;;5007056;28;20084;-77
2023/08/16 04:22:45;;;;;;;8.20;5.32;;;19.50;99.90;;;;;;5002355;28;20041;-77
2023/08/16 04:25:11;;;;;;;8.82;5.40;;;19.40;99.90;;;;;;5010221;28;20376;-77
2023/08/16 04:27:41;;;;;;;6.95;5.18;;;19.40;99.90;;;;;;5013448;28;20022;-77
2023/08/16 04:30:15;;;;;;;25.42;5.55;;;19.40;99.90;;;;;;5012517;28;20030;-77
2023/08/16 04:32:41;;;;;;;10.13;5.10;;;19.40;99.90;;;;;;5007730;28;20084;-77
2023/08/16 04:35:19;;;;;;;10.13;5.15;;;19.40;99.90;;;;;;5012233;28;20030;-76
2023/08/16 04:37:44;;;;;;;9.55;5.15;;;19.40;99.90;;;;;;5010371;28;20026;-76
2023/08/16 04:40:11;;;;;;;10.05;5.07;;;19.40;99.90;;;;;;5011858;28;20374;-75
2023/08/16 04:42:42;;;;;;;6.32;4.47;;;19.40;99.90;;;;;;5009508;28;20484;-78
2023/08/16 04:45:11;;;;;;;9.30;4.70;;;19.40;99.90;;;;;;4988243;28;20121;-77
2023/08/16 04:47:42;;;;;;;7.15;4.82;;;19.50;99.90;;;;;;5008617;28;20026;-77
2023/08/16 04:50:11;;;;;;;10.02;5.22;;;19.50;99.90;;;;;;4991094;28;20508;-77
2023/08/16 04:52:45;;;;;;;6.95;5.00;;;19.50;99.90;;;;;;5011762;28;20109;-78
2023/08/16 04:55:11;;;;;;;10.85;5.78;;;19.40;99.90;;;;;;5005424;28;20108;-77
2023/08/16 04:57:46;;;;;;;9.20;5.65;;;19.50;99.90;;;;;;5004098;28;20745;-77
2023/08/16 05:00:30;;;;;;;9.80;5.50;;;19.50;99.90;;;;;;5000890;28;20441;-77
2023/08/16 05:02:55;;;;;;;;;;;19.50;99.90;;;;;;4992015;28;20519;-77
2023/08/16 05:05:21;;;;;;;7.35;5.18;;;19.50;99.90;;;;;;4991674;28;19909;-77
2023/08/16 05:07:53;;;;;;;7.63;5.57;;;19.50;99.90;;;;;;5009027;28;20487;-77
2023/08/16 05:10:18;;;;;;;7.32;4.75;;;19.50;99.90;;;;;;5011177;28;20480;-78
2023/08/16 05:15:16;;;;;;;9.40;5.05;;;19.60;99.90;;;;;;5035281;23;20049;-74
2023/08/16 05:17:41;;;;;;;11.55;5.72;;;19.60;99.90;;;;;;5026450;28;20479;-76
2023/08/16 05:20:13;;;;;;;10.82;5.25;;;19.60;99.90;;;;;;5017512;28;20034;-75
2023/08/16 05:22:38;;;;;;;8.85;5.47;;;19.70;99.90;;;;;;5023895;28;20108;-77
2023/08/16 05:25:13;;;;;;;8.38;5.60;;;19.80;99.90;;;;;;5027346;28;20466;-77
2023/08/16 05:27:38;;;;;;;9.57;5.60;;;19.90;99.90;;;;;;5022577;28;20441;-76
2023/08/16 05:30:07;;;;;;;9.55;5.70;;;20.00;99.90;;;;;;5021715;28;20110;-77
2023/08/16 05:32:33;;;;;;;8.15;5.88;;;20.10;99.90;;;;;;5006079;28;20108;-73
2023/08/16 05:35:05;;;;;;;8.27;6.40;;;20.10;99.90;;;;;;5024602;28;20563;-71
2023/08/16 05:37:31;;;;;;;11.95;5.95;;;20.30;99.90;;;;;;5026226;28;20033;-72
2023/08/16 05:39:56;;;;;;;10.32;6.47;;;20.40;99.90;;;;;;5024441;28;20064;-72
2023/08/16 05:42:22;;;;;;;9.18;5.38;;;20.60;99.90;;;;;;5017962;28;20029;-71
2023/08/16 05:44:47;;;;;;;9.30;5.13;;;20.60;99.90;;;;;;5001918;28;20032;-73
2023/08/16 05:47:13;;;;;;;11.18;5.25;;;20.70;99.90;;;;;;5017840;28;20022;-73
2023/08/16 05:49:39;;;;;;;11.38;5.60;;;20.80;99.90;;;;;;5022017;28;20021;-73
2023/08/16 05:52:04;;;;;;;9.52;6.95;;;21.00;99.90;;;;;;5022729;28;20029;-73
2023/08/16 05:54:30;;;;;;;9.48;7.00;;;21.10;99.90;;;;;;5024099;28;20029;-73
2023/08/16 05:56:55;;;;;;;10.60;7.53;;;21.20;99.90;;;;;;5023005;28;20602;-73
2023/08/16 05:59:21;;;;;;;12.35;7.78;;;21.30;99.90;;;;;;5026122;28;20029;-72
2023/08/16 06:01:47;;;;;;;11.20;7.35;;;21.40;99.90;;;;;;5026765;28;20048;-70
2023/08/16 06:04:12;;;;;;;10.20;7.40;;;21.50;99.90;;;;;;5008007;28;20028;-72
2023/08/16 06:06:38;;;;;;;11.73;7.45;;;21.50;99.90;;;;;;5026360;28;20034;-75
2023/08/16 06:09:04;;;;;;;8.77;6.97;;;21.60;99.90;;;;;;5006519;28;20528;-71
2023/08/16 06:11:36;;;;;;;9.93;6.20;;;21.70;99.90;;;;;;5022213;28;20021;-71
2023/08/16 06:14:10;;;;;;;9.00;5.95;;;21.80;99.90;;;;;;5022796;28;20038;-72
2023/08/16 06:16:42;;;;;;;10.38;6.20;;;21.90;99.90;;;;;;5020788;28;20061;-72
2023/08/16 06:19:08;;;;;;;9.35;6.15;;;22.00;99.90;;;;;;5023385;28;20043;-73
2023/08/16 06:21:34;;;;;;;6.53;5.05;;;22.00;99.90;;;;;;5022284;28;20056;-72
2023/08/16 06:24:04;;;;;;;8.32;5.70;;;22.10;99.90;;;;;;5019978;28;20045;-72
2023/08/16 06:26:30;;;;;;;7.07;5.38;;;22.10;99.90;;;;;;5016766;28;20018;-72
2023/08/16 06:28:55;;;;;;;7.63;5.60;;;22.20;99.90;;;;;;5020568;28;20502;-74
2023/08/16 06:31:21;;;;;;;8.52;5.40;;;22.30;99.90;;;;;;5020880;28;20091;-72
2023/08/16 06:33:47;;;;;;;7.03;5.60;;;22.40;99.90;;;;;;5007037;28;21585;-72
2023/08/16 06:36:13;;;;;;;10.43;6.03;;;22.40;99.90;;;;;;5023657;28;20766;-73
2023/08/16 06:38:39;;;;;;;6.93;5.03;;;22.50;99.90;;;;;;5023148;28;20029;-73
2023/08/16 06:41:04;;;;;;;8.55;5.47;;;22.50;99.90;;;;;;5023432;28;20038;-74
2023/08/16 06:43:30;;;;;;;8.13;5.53;;;22.60;99.90;;;;;;5021480;28;20100;-78
2023/08/16 06:45:56;;;;;;;7.85;5.00;;;22.60;99.90;;;;;;5011206;28;20727;-77
2023/08/16 06:48:22;;;;;;;6.22;5.22;;;22.60;99.90;;;;;;5024323;28;20496;-79
2023/08/16 06:50:48;;;;;;;8.38;5.47;;;22.60;99.90;;;;;;5021043;28;20033;-77
2023/08/16 06:53:14;;;;;;;5.78;4.90;;;22.70;99.90;;;;;;5004753;28;20042;-76
2023/08/16 06:55:43;;;;;;;12.80;5.35;;;22.70;99.90;;;;;;5022347;28;20399;-77
2023/08/16 06:58:09;;;;;;;8.65;6.18;;;22.70;99.90;;;;;;5003683;28;21055;-76
2023/08/16 07:00:49;;;;;;;8.02;5.57;;;22.70;99.90;;;;;;5021139;28;20179;-77
2023/08/16 07:03:16;;;;;;;8.07;5.53;;;22.60;99.90;;;;;;5021600;28;20036;-72
2023/08/16 07:05:42;;;;;;;9.77;6.00;;;22.70;99.90;;;;;;5021581;28;20394;-75
2023/08/16 07:08:07;;;;;;;8.38;5.93;;;22.70;99.90;;;;;;5018001;28;20037;-72
2023/08/16 07:10:41;;;;;;;6.75;5.07;;;22.70;99.90;;;;;;5019664;28;20033;-74
2023/08/16 07:13:07;;;;;;;9.90;5.47;;;22.70;99.90;;;;;;5025561;28;20026;-76
2023/08/16 07:15:33;;;;;;;8.35;5.32;;;22.70;99.90;;;;;;5003664;28;20037;-76
2023/08/16 07:18:05;;;;;;;10.40;5.50;;;22.80;99.90;;;;;;5024418;28;20092;-77
2023/08/16 07:20:36;;;;;;;7.90;4.85;;;22.90;99.90;;;;;;5025449;28;20433;-76
2023/08/16 07:23:05;;;;;;;9.95;5.20;;;22.90;99.90;;;;;;5020851;28;20507;-77
2023/08/16 07:25:37;;;;;;;8.80;5.45;;;23.00;99.90;;;;;;5022682;28;20014;-78
2023/08/16 07:28:04;;;;;;;9.02;5.53;;;23.10;99.90;;;;;;5025590;28;20446;-79
2023/08/16 07:30:37;;;;;;;9.73;5.10;;;23.20;99.90;;;;;;5032236;28;20020;-78
2023/08/16 07:33:04;;;;;;;11.43;5.32;;;23.20;99.90;;;;;;5009285;28;20033;-78
2023/08/16 07:35:30;;;;;;;7.80;4.97;;;23.30;99.90;;;;;;5026500;28;20105;-79
2023/08/16 07:38:00;;;;;;;6.95;4.90;;;23.30;99.90;;;;;;5028609;28;20030;-79
2023/08/16 07:40:25;;;;;;;7.15;4.82;;;23.40;99.90;;;;;;5027350;28;20080;-81
2023/08/16 07:42:54;;;;;;;8.07;5.32;;;23.40;99.90;;;;;;5028000;28;20041;-78
2023/08/16 07:45:21;;;;;;;7.03;5.32;;;23.40;99.90;;;;;;5009855;28;20052;-78
2023/08/16 07:47:50;;;;;;;9.40;5.53;;;23.40;99.90;;;;;;5010746;28;20052;-78
2023/08/16 07:50:15;;;;;;;7.07;5.05;;;23.40;99.90;;;;;;5028050;28;20036;-76
2023/08/16 07:52:49;;;;;;;8.88;5.57;;;23.40;99.90;;;;;;5030643;28;20112;-78
2023/08/16 07:55:17;;;;;;;6.75;4.68;;;23.40;99.90;;;;;;5023404;28;20029;-79
2023/08/16 07:57:43;;;;;;;11.30;5.03;;;23.40;99.90;;;;;;5025113;28;20034;-78
2023/08/16 08:00:12;;;;;;;7.53;5.18;;;23.50;99.90;;;;;;5025012;28;20542;-79
2023/08/16 08:02:44;;;;;;;8.98;5.00;;;23.50;99.90;;;;;;5020595;28;20049;-77
2023/08/16 08:05:10;;;;;;;10.15;5.28;;;23.50;99.90;;;;;;5027637;28;20387;-79
2023/08/16 08:07:35;;;;;;;7.20;5.53;;;23.60;99.90;;;;;;5012758;28;20025;-79
2023/08/16 08:10:01;;;;;;;7.28;5.55;;;23.70;99.90;;;;;;5016879;28;20036;-79
2023/08/16 08:12:27;;;;;;;12.80;6.18;;;23.70;99.90;;;;;;5028274;28;20448;-78
2023/08/16 08:14:52;;;;;;;10.18;5.63;;;23.70;99.90;;;;;;5011960;28;20179;-78
2023/08/16 08:17:18;;;;;;;8.98;5.38;;;23.70;99.90;;;;;;5023593;28;20033;-78
2023/08/16 08:19:43;;;;;;;11.57;5.95;;;23.80;99.90;;;;;;5029773;28;20511;-78
2023/08/16 08:22:10;;;;;;;6.85;5.32;;;23.80;99.90;;;;;;5029859;28;20040;-78
2023/08/16 08:24:35;;;;;;;9.27;5.50;;;23.90;99.90;;;;;;5009164;28;20029;-77
2023/08/16 08:27:07;;;;;;;6.32;4.93;;;24.00;99.90;;;;;;5011825;28;20392;-79
2023/08/16 08:29:40;;;;;;;7.20;5.65;;;24.00;99.90;;;;;;5013557;28;20029;-77
2023/08/16 08:32:06;;;;;;;6.75;5.32;;;24.10;99.90;;;;;;5027344;28;20029;-77
2023/08/16 08:34:32;;;;;;;7.78;5.00;;;24.10;99.90;;;;;;5025729;28;20038;-77
2023/08/16 08:36:59;;;;;;;8.70;4.75;;;24.20;99.90;;;;;;5028323;28;20030;-78
2023/08/16 08:39:43;;;;;;;9.50;5.70;;;24.30;99.90;;;;;;5026013;28;20033;-77
2023/08/16 08:42:09;;;;;;;11.88;5.32;;;24.40;99.90;;;;;;5007559;28;20064;-78
2023/08/16 08:44:43;;;;;;;6.78;4.88;;;24.40;99.90;;;;;;5007772;28;20041;-76
2023/08/16 08:47:11;;;;;;;;;;;24.40;99.90;;;;;;5027821;28;20034;-77
2023/08/16 08:49:44;;;;;;;7.38;5.53;;;24.40;99.90;;;;;;5025450;28;20346;-78
2023/08/16 08:52:15;;;;;;;8.03;5.27;;;24.50;99.90;;;;;;5015088;28;20041;-78
2023/08/16 08:54:44;;;;;;;11.73;4.68;;;24.60;99.90;;;;;;5028997;28;20040;-79
2023/08/16 08:57:11;;;;;;;10.90;5.45;;;24.70;99.90;;;;;;5022687;28;20037;-72
2023/08/16 08:59:39;;;;;;;8.93;5.30;;;24.70;99.90;;;;;;5015262;28;20067;-73
2023/08/16 09:02:05;;;;;;;7.82;5.13;;;24.80;99.90;;;;;;5023263;28;20029;-74
2023/08/16 09:04:41;;;;;;;8.98;5.55;;;24.90;99.90;;;;;;5021029;28;20029;-74
2023/08/16 09:07:07;;;;;;;7.13;4.85;;;25.00;99.90;;;;;;5023799;28;20300;-74
2023/08/16 09:09:44;;;;;;;15.40;5.40;;;25.00;99.90;;;;;;5020908;28;20032;-73
2023/08/16 09:12:13;;;;;;;6.50;4.57;;;25.10;99.90;;;;;;5022420;28;20045;-74
2023/08/16 09:14:39;;;;;;;6.60;5.10;;;25.20;99.90;;;;;;5021818;28;20031;-74
2023/08/16 09:17:07;;;;;;;10.75;6.00;;;25.30;99.90;;;;;;5019005;28;20022;-73
2023/08/16 09:19:45;;;;;;;9.20;4.90;;;25.40;99.90;;;;;;5003918;28;22440;-74
2023/08/16 09:22:12;;;;;;;8.93;4.75;;;25.40;99.90;;;;;;5017609;28;20036;-72
2023/08/16 09:24:42;;;;;;;6.32;5.15;;;25.40;99.90;;;;;;5021892;28;20045;-77
2023/08/16 09:27:10;;;;;;;7.32;5.40;;;25.50;99.90;;;;;;5022731;28;20052;-75
2023/08/16 09:29:42;;;;;;;11.68;6.20;;;25.50;99.90;;;;;;5024807;28;20480;-78
2023/08/16 09:32:11;;;;;;;8.25;4.60;;;25.50;99.90;;;;;;5028445;28;20034;-77
2023/08/16 09:34:40;;;;;;;6.68;4.90;;;25.50;99.90;;;;;;5005112;28;20025;-78
2023/08/16 09:37:17;;;;;;;6.78;5.15;;;25.50;99.90;;;;;;5027440;28;20468;-75
2023/08/16 09:39:43;;;;;;;5.30;4.78;;;25.60;99.90;;;;;;5009561;28;20129;-77
2023/08/16 09:42:12;;;;;;;6.78;4.70;;;25.60;99.90;;;;;;5025440;28;20178;-79
2023/08/16 09:44:42;;;;;;;8.77;5.28;;;25.60;99.90;;;;;;5010245;28;20091;-76
2023/08/16 09:47:14;;;;;;;6.85;5.38;;;25.70;99.90;;;;;;5027383;28;20475;-77
2023/08/16 09:49:46;;;;;;;8.10;5.20;;;25.70;99.90;;;;;;5021840;28;20534;-76
2023/08/16 09:52:12;;;;;;;7.30;4.53;;;25.80;99.90;;;;;;5023396;28;20041;-78
2023/08/16 09:54:48;;;;;;;6.32;5.13;;;25.90;99.90;;;;;;5007176;28;20022;-78
2023/08/16 09:57:14;;;;;;;10.70;5.10;;;25.90;99.90;;;;;;5026353;28;20553;-79
2023/08/16 09:59:47;;;;;;;7.57;5.47;;;25.90;99.90;;;;;;5027408;28;20108;-78
2023/08/16 10:02:13;;;;;;;6.57;5.05;;;26.00;99.90;;;;;;5025123;28;20030;-80
2023/08/16 10:04:42;;;;;;;5.95;4.85;;;26.10;99.90;;;;;;5025124;28;20025;-78
2023/08/16 10:07:15;;;;;;;5.82;5.00;;;26.20;99.90;;;;;;5026093;28;20025;-78
2023/08/16 10:09:43;;;;;;;8.77;5.45;;;26.30;99.90;;;;;;5022946;28;20021;-78
2023/08/16 10:12:12;;;;;;;7.63;5.05;;;26.30;99.90;;;;;;5009415;28;20075;-77
2023/08/16 10:14:44;;;;;;;8.38;4.70;;;26.40;99.90;;;;;;5025911;28;20032;-78
2023/08/16 10:17:14;;;;;;;5.47;4.25;;;26.40;99.90;;;;;;5003990;28;20138;-76
2023/08/16 10:19:45;;;;;;;7.13;4.93;;;26.50;99.90;;;;;;5010829;28;20116;-77
2023/08/16 10:22:29;;;;;;;6.50;5.03;;;26.60;99.90;;;;;;5026928;28;20033;-78
2023/08/16 10:24:57;;;;;;;7.43;5.10;;;26.60;99.90;;;;;;5023987;28;20388;-77
2023/08/16 10:27:30;;;;;;;8.60;5.57;;;26.70;99.90;;;;;;5024290;28;20080;-77
2023/08/16 10:30:02;;;;;;;8.18;5.40;;;26.80;99.90;;;;;;5004796;28;20498;-77
2023/08/16 10:32:28;;;;;;;8.63;4.90;;;26.90;99.90;;;;;;5008677;28;20103;-77
2023/08/16 10:34:58;;;;;;;8.98;4.80;;;26.90;99.90;;;;;;5023397;28;20029;-76
2023/08/16 10:37:25;;;;;;;7.97;5.20;;;27.00;99.90;;;;;;5029384;28;20461;-78
2023/08/16 10:39:54;;;;;;;8.20;4.38;;;27.10;99.90;;;;;;5024767;28;20164;-77
2023/08/16 10:42:26;;;;;;;6.22;5.57;;;27.10;99.90;;;;;;5027410;28;20068;-77
2023/08/16 10:44:55;;;;;;;16.92;5.63;;;27.20;99.90;;;;;;5029216;28;20532;-78
2023/08/16 10:47:31;;;;;;;9.57;5.15;;;27.30;99.90;;;;;;5027432;28;20150;-77
2023/08/16 10:50:00;;;;;;;8.35;5.03;;;27.30;99.90;;;;;;5013733;28;20036;-78
2023/08/16 10:52:32;;;;;;;6.38;4.68;;;27.40;99.90;;;;;;5029047;28;20025;-78
2023/08/16 10:55:01;;;;;;;9.10;4.90;;;27.40;99.90;;;;;;5030335;28;20033;-77
2023/08/16 10:57:49;;;;;;;5.13;4.50;;;27.40;99.90;;;;;;5028332;28;20036;-79
2023/08/16 11:00:17;;;;;;;5.45;4.82;;;27.50;99.90;;;;;;5028295;28;20026;-77
2023/08/16 11:02:49;;;;;;;6.93;5.18;;;27.50;99.90;;;;;;5030670;28;20388;-77
2023/08/16 11:05:18;;;;;;;8.68;5.53;;;27.60;99.90;;;;;;5028630;28;20022;-78
2023/08/16 11:07:44;;;;;;;8.52;5.22;;;27.70;99.90;;;;;;5015439;28;20024;-76
2023/08/16 11:10:16;;;;;;;7.00;4.47;;;27.70;99.90;;;;;;5012662;28;20024;-77
2023/08/16 11:12:46;;;;;;;8.70;4.80;;;27.70;99.90;;;;;;5013585;28;20033;-76
2023/08/16 11:15:18;;;;;;;8.25;4.95;;;27.70;99.90;;;;;;5021815;23;20046;-76
2023/08/16 11:17:47;;;;;;;5.53;4.10;;;27.80;99.90;;;;;;4993374;28;20033;-76
2023/08/16 11:20:17;;;;;;;5.47;4.25;;;27.80;99.90;;;;;;5009227;28;20022;-76
2023/08/16 11:22:43;;;;;;;6.85;4.57;;;27.90;99.90;;;;;;5009772;28;20487;-76
2023/08/16 11:25:17;;;;;;;5.78;4.65;;;28.10;99.90;;;;;;5003548;28;20036;-76
2023/08/16 11:27:46;;;;;;;6.70;4.35;;;28.20;99.90;;;;;;5007827;28;20022;-76
2023/08/16 11:30:16;;;;;;;4.30;3.90;;;28.30;99.90;;;;;;5010545;28;20025;-76
2023/08/16 11:32:42;;;;;;;6.20;4.25;;;28.40;99.90;;;;;;5005006;28;21000;-76
2023/08/16 11:35:09;;;;;;;4.97;4.07;;;28.40;99.90;;;;;;5007924;28;20029;-76
2023/08/16 11:37:50;;;;;;;6.05;4.43;;;28.40;99.90;;;;;;5011134;28;20025;-76
2023/08/16 11:40:22;;;;;;;5.22;4.35;;;28.40;99.90;;;;;;5005735;28;20519;-76
2023/08/16 11:42:50;;;;;;;8.48;4.40;;;28.40;99.90;;;;;;5007133;28;20029;-76
2023/08/16 11:45:43;;;;;;;5.03;4.53;;;28.40;99.90;;;;;;4990180;28;20622;-76
2023/08/16 11:48:16;;;;;;;7.03;4.45;;;28.40;99.90;;;;;;5006733;28;20034;-76
2023/08/16 11:50:44;;;;;;;7.32;4.18;;;28.40;99.90;;;;;;4986746;28;20027;-76
2023/08/16 11:53:16;;;;;;;5.60;4.55;;;28.50;99.90;;;;;;5009807;28;20069;-76
2023/08/16 11:56:01;;;;;;;7.60;4.43;;;28.50;99.90;;;;;;4988445;28;20026;-76
2023/08/16 11:58:47;;;;;;;8.65;4.00;;;28.60;99.90;;;;;;5005648;28;20436;-76
2023/08/16 12:01:22;;;;;;;8.10;4.22;;;28.60;99.90;;;;;;5003650;28;20038;-76
2023/08/16 12:03:48;;;;;;;5.38;3.95;;;28.60;99.90;;;;;;5010930;28;20033;-76
2023/08/16 12:06:16;;;;;;;4.90;3.97;;;28.70;99.90;;;;;;4990879;28;20061;-76
2023/08/16 12:08:54;;;;;;;6.18;3.83;;;28.70;99.90;;;;;;4991630;28;20033;-76
2023/08/16 12:11:28;;;;;;;5.55;4.22;;;28.80;99.90;;;;;;4989251;28;20112;-76
2023/08/16 12:13:56;;;;;;;5.85;4.75;;;28.80;99.90;;;;;;5006375;28;20184;-76
2023/08/16 12:16:26;;;;;;;5.55;4.05;;;28.90;99.90;;;;;;5005236;28;20030;-76
2023/08/16 12:18:51;;;;;;;5.60;3.75;;;28.90;99.90;;;;;;5010481;28;20047;-76
2023/08/16 12:21:17;;;;;;;8.18;4.07;;;28.90;99.90;;;;;;4992896;28;20516;-76
2023/08/16 12:23:43;;;;;;;8.70;4.47;;;28.90;99.90;;;;;;5007863;28;20040;-76
2023/08/16 12:26:13;;;;;;;4.90;3.97;;;29.00;99.90;;;;;;5003089;28;20021;-76
2023/08/16 12:28:43;;;;;;;5.70;3.88;;;29.00;99.90;;;;;;4988781;28;20054;-76
2023/08/16 12:31:14;;;;;;;5.95;4.25;;;29.00;99.90;;;;;;5004759;28;20121;-76
2023/08/16 12:33:41;;;;;;;8.32;4.22;;;29.10;99.90;;;;;;5003203;28;20548;-76
2023/08/16 12:36:07;;;;;;;5.25;3.97;;;29.10;99.90;;;;;;5007401;28;20022;-76
2023/08/16 12:38:40;;;;;;;5.57;4.30;;;29.20;99.90;;;;;;4987906;28;20029;-76
2023/08/16 12:41:07;;;;;;;6.38;3.88;;;29.30;99.70;;;;;;5007692;28;20030;-76
2023/08/16 12:43:44;;;;;;;6.80;4.43;;;29.30;99.50;;;;;;4989078;28;20046;-76
2023/08/16 12:46:10;;;;;;;6.13;3.50;;;29.30;99.30;;;;;;4988604;28;20036;-76
2023/08/16 12:48:42;;;;;;;8.35;3.80;;;29.40;98.20;;;;;;5009890;28;20025;-76
2023/08/16 12:51:08;;;;;;;6.57;3.35;;;29.40;98.00;;;;;;4992485;28;20033;-76
2023/08/16 12:53:34;;;;;;;3.95;3.45;;;29.40;97.60;;;;;;5007430;28;20041;-76
2023/08/16 12:56:03;;;;;;;5.80;3.80;;;29.40;97.20;;;;;;4992488;28;20380;-76
2023/08/16 12:58:35;;;;;;;7.40;3.58;;;29.40;97.60;;;;;;5011494;28;20034;-76